sensor_id;sensor_type;location;lat;lon;timestamp;pressure;altitude;pressure_sealevel;temperature;humidity
77517;BME280;68414;53.946;27.634;2023-06-04T00:00:08;99633.851562;;;9.670000;55.457031
77517;BME280;68414;53.946;27.634;2023-06-04T00:01:08;99634.156250;;;9.660000;55.412109
77517;BME280;68414;53.946;27.634;2023-06-04T00:02:09;99634.023438;;;9.620000;55.548828
77517;BME280;68414;53.946;27.634;2023-06-04T00:03:08;99636.632812;;;9.590000;55.750977
77517;BME280;68414;53.946;27.634;2023-06-04T00:04:08;99633.882812;;;9.590000;55.750977
77517;BME280;68414;53.946;27.634;2023-06-04T00:05:08;99631.132812;;;9.590000;55.958008
77517;BME280;68414;53.946;27.634;2023-06-04T00:06:08;99633.406250;;;9.570000;56.007812
77517;BME280;68414;53.946;27.634;2023-06-04T00:07:08;99633.578125;;;9.520000;56.165039
77517;BME280;68414;53.946;27.634;2023-06-04T00:08:08;99633.265625;;;9.450000;56.536133
77517;BME280;68414;53.946;27.634;2023-06-04T00:09:08;99634.101562;;;9.370000;56.665039
77517;BME280;68414;53.946;27.634;2023-06-04T00:10:08;99634.937500;;;9.290000;57.002930
77517;BME280;68414;53.946;27.634;2023-06-04T00:11:08;99634.453125;;;9.270000;57.325195
77517;BME280;68414;53.946;27.634;2023-06-04T00:12:08;99633.312500;;;9.280000;57.174805
77517;BME280;68414;53.946;27.634;2023-06-04T00:13:08;99634.265625;;;9.320000;57.211914
77517;BME280;68414;53.946;27.634;2023-06-04T00:14:08;99635.421875;;;9.310000;57.264648
77517;BME280;68414;53.946;27.634;2023-06-04T00:15:08;99632.328125;;;9.320000;57.299805
77517;BME280;68414;53.946;27.634;2023-06-04T00:16:08;99638.312500;;;9.340000;57.313477
77517;BME280;68414;53.946;27.634;2023-06-04T00:17:08;99628.453125;;;9.330000;57.279297
77517;BME280;68414;53.946;27.634;2023-06-04T00:18:08;99628.125000;;;9.350000;57.345703
77517;BME280;68414;53.946;27.634;2023-06-04T00:19:08;99627.984375;;;9.310000;57.341797
77517;BME280;68414;53.946;27.634;2023-06-04T00:20:08;99626.351562;;;9.300000;57.438477
77517;BME280;68414;53.946;27.634;2023-06-04T00:21:08;99630.890625;;;9.260000;57.520508
77517;BME280;68414;53.946;27.634;2023-06-04T00:22:08;99637.203125;;;9.270000;57.335938
77517;BME280;68414;53.946;27.634;2023-06-04T00:23:08;99632.187500;;;9.290000;57.360352
77517;BME280;68414;53.946;27.634;2023-06-04T00:24:08;99632.187500;;;9.290000;57.360352
77517;BME280;68414;53.946;27.634;2023-06-04T00:25:12;99636.531250;;;9.300000;57.393555
77517;BME280;68414;53.946;27.634;2023-06-04T00:26:08;99635.242188;;;9.270000;57.541992
77517;BME280;68414;53.946;27.634;2023-06-04T00:27:08;99636.062500;;;9.280000;57.532227
77517;BME280;68414;53.946;27.634;2023-06-04T00:28:08;99634.937500;;;9.290000;57.674805
77517;BME280;68414;53.946;27.634;2023-06-04T00:29:08;99636.062500;;;9.280000;57.629883
77517;BME280;68414;53.946;27.634;2023-06-04T00:30:08;99638.812500;;;9.280000;57.770508
77517;BME280;68414;53.946;27.634;2023-06-04T00:31:08;99638.664062;;;9.240000;57.874023
77517;BME280;68414;53.946;27.634;2023-06-04T00:32:08;99640.609375;;;9.150000;58.045898
77517;BME280;68414;53.946;27.634;2023-06-04T00:33:08;99635.609375;;;9.080000;58.253906
77517;BME280;68414;53.946;27.634;2023-06-04T00:34:08;99645.789062;;;9.080000;58.330078
77517;BME280;68414;53.946;27.634;2023-06-04T00:35:08;99636.250000;;;9.050000;58.434570
77517;BME280;68414;53.946;27.634;2023-06-04T00:36:08;99641.109375;;;9.080000;58.383789
77517;BME280;68414;53.946;27.634;2023-06-04T00:37:08;99640.296875;;;9.080000;58.470703
77517;BME280;68414;53.946;27.634;2023-06-04T00:38:08;99634.796875;;;9.080000;58.600586
77517;BME280;68414;53.946;27.634;2023-06-04T00:39:08;99631.742188;;;9.090000;58.538086
77517;BME280;68414;53.946;27.634;2023-06-04T00:40:08;99626.242188;;;9.090000;58.701172
77517;BME280;68414;53.946;27.634;2023-06-04T00:41:08;99634.640625;;;9.130000;58.671875
77517;BME280;68414;53.946;27.634;2023-06-04T00:42:09;99636.234375;;;9.140000;58.629883
77517;BME280;68414;53.946;27.634;2023-06-04T00:43:08;99639.460938;;;9.160000;58.567383
77517;BME280;68414;53.946;27.634;2023-06-04T00:44:08;99640.953125;;;9.130000;58.640625
77517;BME280;68414;53.946;27.634;2023-06-04T00:45:08;99639.312500;;;9.120000;58.618164
77517;BME280;68414;53.946;27.634;2023-06-04T00:46:08;99650.796875;;;9.140000;58.620117
77517;BME280;68414;53.946;27.634;2023-06-04T00:47:08;99645.468750;;;9.180000;58.462891
77517;BME280;68414;53.946;27.634;2023-06-04T00:48:08;99645.468750;;;9.180000;58.473633
77517;BME280;68414;53.946;27.634;2023-06-04T00:49:08;99644.328125;;;9.190000;58.453125
77517;BME280;68414;53.946;27.634;2023-06-04T00:50:08;99646.734375;;;9.210000;58.411133
77517;BME280;68414;53.946;27.634;2023-06-04T00:51:08;99649.484375;;;9.210000;58.454102
77517;BME280;68414;53.946;27.634;2023-06-04T00:52:09;99641.093750;;;9.170000;58.700195
77517;BME280;68414;53.946;27.634;2023-06-04T00:53:08;99644.960938;;;9.160000;58.762695
77517;BME280;68414;53.946;27.634;2023-06-04T00:54:08;99647.234375;;;9.140000;58.759766
77517;BME280;68414;53.946;27.634;2023-06-04T00:55:08;99650.796875;;;9.140000;58.783203
77517;BME280;68414;53.946;27.634;2023-06-04T00:56:08;99644.484375;;;9.140000;58.900391
77517;BME280;68414;53.946;27.634;2023-06-04T00:57:08;99653.062500;;;9.120000;58.997070
77517;BME280;68414;53.946;27.634;2023-06-04T00:58:08;99643.359375;;;9.150000;58.977539
77517;BME280;68414;53.946;27.634;2023-06-04T00:59:08;99646.921875;;;9.150000;58.860352
77517;BME280;68414;53.946;27.634;2023-06-04T01:00:08;99647.710938;;;9.160000;58.946289
77517;BME280;68414;53.946;27.634;2023-06-04T01:01:10;99648.531250;;;9.160000;59.001953
77517;BME280;68414;53.946;27.634;2023-06-04T01:03:10;99651.929688;;;9.220000;58.912109
77517;BME280;68414;53.946;27.634;2023-06-04T01:07:08;99648.843750;;;9.240000;58.794922
77517;BME280;68414;53.946;27.634;2023-06-04T01:08:08;99648.367188;;;9.220000;58.879883
77517;BME280;68414;53.946;27.634;2023-06-04T01:09:08;99644.656250;;;9.180000;58.959961
77517;BME280;68414;53.946;27.634;2023-06-04T01:10:08;99649.671875;;;9.150000;59.000977
77517;BME280;68414;53.946;27.634;2023-06-04T01:11:08;99652.250000;;;9.120000;59.179688
77517;BME280;68414;53.946;27.634;2023-06-04T01:12:08;99649.015625;;;9.100000;59.133789
77517;BME280;68414;53.946;27.634;2023-06-04T01:13:08;99649.835938;;;9.100000;59.252930
77517;BME280;68414;53.946;27.634;2023-06-04T01:14:08;99650.171875;;;9.090000;59.381836
77517;BME280;68414;53.946;27.634;2023-06-04T01:15:08;99648.234375;;;9.090000;59.491211
77517;BME280;68414;53.946;27.634;2023-06-04T01:16:08;99646.609375;;;9.080000;59.521484
77517;BME280;68414;53.946;27.634;2023-06-04T01:18:08;99647.242188;;;9.050000;59.668945
77517;BME280;68414;53.946;27.634;2023-06-04T01:19:11;99648.398438;;;8.960000;60.078125
77517;BME280;68414;53.946;27.634;2023-06-04T01:21:08;99651.781250;;;8.930000;60.204102
77517;BME280;68414;53.946;27.634;2023-06-04T01:24:08;99646.953125;;;8.900000;60.458984
77517;BME280;68414;53.946;27.634;2023-06-04T01:25:11;99656.796875;;;8.910000;60.461914
77517;BME280;68414;53.946;27.634;2023-06-04T01:26:08;99645.468750;;;8.920000;60.365234
77517;BME280;68414;53.946;27.634;2023-06-04T01:27:08;99657.609375;;;8.910000;60.353516
77517;BME280;68414;53.946;27.634;2023-06-04T01:28:08;99655.828125;;;8.870000;60.476562
77517;BME280;68414;53.946;27.634;2023-06-04T01:29:08;99657.437500;;;8.790000;60.791016
77517;BME280;68414;53.946;27.634;2023-06-04T01:30:08;99653.906250;;;8.790000;60.974609
77517;BME280;68414;53.946;27.634;2023-06-04T01:31:08;99653.234375;;;8.820000;60.708008
77517;BME280;68414;53.946;27.634;2023-06-04T01:32:08;99653.234375;;;8.820000;60.708008
77517;BME280;68414;53.946;27.634;2023-06-04T01:33:08;99651.453125;;;8.770000;60.928711
77517;BME280;68414;53.946;27.634;2023-06-04T01:34:08;99646.773438;;;8.780000;61.047852
77517;BME280;68414;53.946;27.634;2023-06-04T01:35:08;99652.265625;;;8.780000;61.090820
77517;BME280;68414;53.946;27.634;2023-06-04T01:36:08;99649.187500;;;8.790000;61.072266
77517;BME280;68414;53.946;27.634;2023-06-04T01:37:08;99650.820312;;;8.800000;61.116211
77517;BME280;68414;53.946;27.634;2023-06-04T01:38:08;99644.992188;;;8.730000;61.419922
77517;BME280;68414;53.946;27.634;2023-06-04T01:39:08;99648.406250;;;8.700000;61.426758
77517;BME280;68414;53.946;27.634;2023-06-04T01:40:08;99651.296875;;;8.740000;61.399414
77517;BME280;68414;53.946;27.634;2023-06-04T01:41:08;99648.406250;;;8.790000;61.223633
77517;BME280;68414;53.946;27.634;2023-06-04T01:42:08;99651.156250;;;8.790000;61.245117
77517;BME280;68414;53.946;27.634;2023-06-04T01:43:08;99648.890625;;;8.810000;61.041992
77517;BME280;68414;53.946;27.634;2023-06-04T01:44:08;99651.296875;;;8.820000;61.097656
77517;BME280;68414;53.946;27.634;2023-06-04T01:45:08;99650.484375;;;8.820000;61.043945
77517;BME280;68414;53.946;27.634;2023-06-04T01:46:08;99655.500000;;;8.800000;61.202148
77517;BME280;68414;53.946;27.634;2023-06-04T01:47:08;99650.000000;;;8.800000;61.234375
77517;BME280;68414;53.946;27.634;2023-06-04T01:48:08;99651.640625;;;8.810000;61.150391
77517;BME280;68414;53.946;27.634;2023-06-04T01:49:08;99649.187500;;;8.790000;61.202148
77517;BME280;68414;53.946;27.634;2023-06-04T01:50:08;99648.703125;;;8.770000;61.275391
77517;BME280;68414;53.946;27.634;2023-06-04T01:51:08;99650.968750;;;8.750000;61.368164
77517;BME280;68414;53.946;27.634;2023-06-04T01:52:08;99656.164062;;;8.680000;61.758789
77517;BME280;68414;53.946;27.634;2023-06-04T01:53:08;99663.734375;;;8.710000;61.449219
77517;BME280;68414;53.946;27.634;2023-06-04T01:54:08;99659.390625;;;8.700000;61.610352
77517;BME280;68414;53.946;27.634;2023-06-04T01:55:08;99652.929688;;;8.660000;61.550781
77517;BME280;68414;53.946;27.634;2023-06-04T01:56:08;99652.414062;;;8.640000;61.700195
77517;BME280;68414;53.946;27.634;2023-06-04T01:57:08;99649.031250;;;8.590000;62.038086
77517;BME280;68414;53.946;27.634;2023-06-04T01:58:08;99660.835938;;;8.590000;62.027344
77517;BME280;68414;53.946;27.634;2023-06-04T01:59:08;99654.679688;;;8.620000;61.923828
77517;BME280;68414;53.946;27.634;2023-06-04T02:00:08;99653.562500;;;8.630000;61.990234
77517;BME280;68414;53.946;27.634;2023-06-04T02:01:08;99658.234375;;;8.630000;61.923828
77517;BME280;68414;53.946;27.634;2023-06-04T02:02:09;99656.312500;;;8.630000;61.849609
77517;BME280;68414;53.946;27.634;2023-06-04T02:03:08;99671.156250;;;8.620000;62.000000
77517;BME280;68414;53.946;27.634;2023-06-04T02:04:08;99660.500000;;;8.610000;61.954102
77517;BME280;68414;53.946;27.634;2023-06-04T02:05:08;99662.750000;;;8.500000;62.500977
77517;BME280;68414;53.946;27.634;2023-06-04T02:06:08;99660.484375;;;8.440000;62.469727
77517;BME280;68414;53.946;27.634;2023-06-04T02:07:08;99656.765625;;;8.390000;62.669922
77517;BME280;68414;53.946;27.634;2023-06-04T02:08:08;99666.937500;;;8.390000;62.658203
77517;BME280;68414;53.946;27.634;2023-06-04T02:09:08;99669.515625;;;8.350000;62.857422
77517;BME280;68414;53.946;27.634;2023-06-04T02:10:08;99659.492188;;;8.310000;63.045898
77517;BME280;68414;53.946;27.634;2023-06-04T02:11:08;99665.609375;;;8.280000;63.051758
77517;BME280;68414;53.946;27.634;2023-06-04T02:12:08;99666.281250;;;8.330000;62.962891
77517;BME280;68414;53.946;27.634;2023-06-04T02:13:08;99662.375000;;;8.260000;63.060547
77517;BME280;68414;53.946;27.634;2023-06-04T02:14:08;99663.054688;;;8.310000;62.820312
77517;BME280;68414;53.946;27.634;2023-06-04T02:15:10;99661.703125;;;8.200000;63.224609
77517;BME280;68414;53.946;27.634;2023-06-04T02:16:08;99665.531250;;;8.110000;63.772461
77517;BME280;68414;53.946;27.634;2023-06-04T02:17:08;99662.812500;;;8.190000;63.450195
77517;BME280;68414;53.946;27.634;2023-06-04T02:19:08;99667.273438;;;7.980000;63.979492
77517;BME280;68414;53.946;27.634;2023-06-04T02:20:08;99666.750000;;;7.880000;64.471680
77517;BME280;68414;53.946;27.634;2023-06-04T02:21:08;99672.656250;;;7.730000;65.083984
77517;BME280;68414;53.946;27.634;2023-06-04T02:22:08;99671.632812;;;7.600000;65.572266
77517;BME280;68414;53.946;27.634;2023-06-04T02:23:08;99676.421875;;;7.540000;65.822266
77517;BME280;68414;53.946;27.634;2023-06-04T02:24:08;99672.812500;;;7.450000;66.272461
77517;BME280;68414;53.946;27.634;2023-06-04T02:25:08;99663.890625;;;7.620000;65.984375
77517;BME280;68414;53.946;27.634;2023-06-04T02:26:08;99670.078125;;;7.760000;65.467773
77517;BME280;68414;53.946;27.634;2023-06-04T02:27:08;99673.054688;;;7.880000;64.904297
77517;BME280;68414;53.946;27.634;2023-06-04T02:28:08;99674.062500;;;8.010000;64.523438
77517;BME280;68414;53.946;27.634;2023-06-04T02:29:08;99673.765625;;;8.110000;64.127930
77517;BME280;68414;53.946;27.634;2023-06-04T02:30:08;99671.375000;;;8.180000;63.878906
77517;BME280;68414;53.946;27.634;2023-06-04T02:31:08;99669.796875;;;8.250000;63.729492
77517;BME280;68414;53.946;27.634;2023-06-04T02:32:08;99679.531250;;;8.310000;63.608398
77517;BME280;68414;53.946;27.634;2023-06-04T02:33:08;99672.265625;;;8.350000;63.516602
77517;BME280;68414;53.946;27.634;2023-06-04T02:34:08;99669.187500;;;8.370000;63.519531
77517;BME280;68414;53.946;27.634;2023-06-04T02:35:08;99675.984375;;;8.390000;63.361328
77517;BME280;68414;53.946;27.634;2023-06-04T02:36:08;99670.828125;;;8.380000;63.421875
77517;BME280;68414;53.946;27.634;2023-06-04T02:37:08;99674.546875;;;8.420000;63.526367
77517;BME280;68414;53.946;27.634;2023-06-04T02:38:08;99678.265625;;;8.460000;63.328125
77517;BME280;68414;53.946;27.634;2023-06-04T02:39:08;99675.187500;;;8.480000;63.188477
77517;BME280;68414;53.946;27.634;2023-06-04T02:40:08;99675.812500;;;8.450000;63.291992
77517;BME280;68414;53.946;27.634;2023-06-04T02:41:08;99680.343750;;;8.490000;63.148438
77517;BME280;68414;53.946;27.634;2023-06-04T02:42:08;99680.046875;;;8.510000;63.213867
77517;BME280;68414;53.946;27.634;2023-06-04T02:43:08;99675.671875;;;8.500000;63.471680
77517;BME280;68414;53.946;27.634;2023-06-04T02:44:08;99675.343750;;;8.510000;63.215820
77517;BME280;68414;53.946;27.634;2023-06-04T02:45:08;99682.625000;;;8.560000;63.082031
77517;BME280;68414;53.946;27.634;2023-06-04T02:46:08;99683.437500;;;8.560000;62.973633
77517;BME280;68414;53.946;27.634;2023-06-04T02:47:08;99682.953125;;;8.540000;63.284180
77517;BME280;68414;53.946;27.634;2023-06-04T02:48:08;99678.609375;;;8.530000;63.413086
77517;BME280;68414;53.946;27.634;2023-06-04T02:49:08;99689.265625;;;8.550000;63.360352
77517;BME280;68414;53.946;27.634;2023-06-04T02:50:08;99684.585938;;;8.550000;63.437500
77517;BME280;68414;53.946;27.634;2023-06-04T02:51:08;99681.835938;;;8.550000;63.318359
77517;BME280;68414;53.946;27.634;2023-06-04T02:52:08;99692.351562;;;8.620000;63.241211
77517;BME280;68414;53.946;27.634;2023-06-04T02:53:08;99687.156250;;;8.600000;63.402344
77517;BME280;68414;53.946;27.634;2023-06-04T02:54:08;99690.875000;;;8.640000;63.310547
77517;BME280;68414;53.946;27.634;2023-06-04T02:55:08;99688.945312;;;8.650000;63.148438
77517;BME280;68414;53.946;27.634;2023-06-04T02:56:08;99687.343750;;;8.640000;63.340820
77517;BME280;68414;53.946;27.634;2023-06-04T02:57:08;99685.562500;;;8.680000;63.174805
77517;BME280;68414;53.946;27.634;2023-06-04T02:58:08;99687.171875;;;8.690000;63.306641
77517;BME280;68414;53.946;27.634;2023-06-04T02:59:08;99684.601562;;;8.720000;63.117188
77517;BME280;68414;53.946;27.634;2023-06-04T03:00:08;99687.351562;;;8.720000;63.247070
77517;BME280;68414;53.946;27.634;2023-06-04T03:01:08;99681.679688;;;8.770000;63.047852
77517;BME280;68414;53.946;27.634;2023-06-04T03:02:08;99682.976562;;;8.800000;63.072266
77517;BME280;68414;53.946;27.634;2023-06-04T03:03:08;99687.023438;;;8.820000;63.011719
77517;BME280;68414;53.946;27.634;2023-06-04T03:04:07;99677.328125;;;8.760000;63.349609
77517;BME280;68414;53.946;27.634;2023-06-04T03:05:08;99686.546875;;;8.800000;63.366211
77517;BME280;68414;53.946;27.634;2023-06-04T03:06:08;99684.429688;;;8.860000;63.244141
77517;BME280;68414;53.946;27.634;2023-06-04T03:07:08;99683.460938;;;8.820000;63.595703
77517;BME280;68414;53.946;27.634;2023-06-04T03:08:08;99680.078125;;;8.850000;63.621094
77517;BME280;68414;53.946;27.634;2023-06-04T03:09:08;99676.187500;;;8.940000;63.408203
77517;BME280;68414;53.946;27.634;2023-06-04T03:10:08;99683.945312;;;9.010000;63.190430
77517;BME280;68414;53.946;27.634;2023-06-04T03:11:08;99690.109375;;;9.060000;63.187500
77517;BME280;68414;53.946;27.634;2023-06-04T03:12:08;99684.453125;;;9.110000;63.000977
77517;BME280;68414;53.946;27.634;2023-06-04T03:13:08;99683.156250;;;9.180000;62.803711
77517;BME280;68414;53.946;27.634;2023-06-04T03:14:08;99688.968750;;;9.250000;62.661133
77517;BME280;68414;53.946;27.634;2023-06-04T03:15:08;99680.867188;;;9.280000;62.527344
77517;BME280;68414;53.946;27.634;2023-06-04T03:16:08;99682.171875;;;9.310000;62.541016
77517;BME280;68414;53.946;27.634;2023-06-04T03:17:07;99682.453125;;;9.380000;62.291992
77517;BME280;68414;53.946;27.634;2023-06-04T03:18:08;99676.312500;;;9.410000;62.251953
77517;BME280;68414;53.946;27.634;2023-06-04T03:19:07;99682.781250;;;9.450000;62.162109
77517;BME280;68414;53.946;27.634;2023-06-04T03:20:08;99682.625000;;;9.410000;62.241211
77517;BME280;68414;53.946;27.634;2023-06-04T03:21:08;99683.445312;;;9.420000;62.416016
77517;BME280;68414;53.946;27.634;2023-06-04T03:22:08;99681.312500;;;9.470000;62.467773
77517;BME280;68414;53.946;27.634;2023-06-04T03:23:08;99677.250000;;;9.530000;62.118164
77517;BME280;68414;53.946;27.634;2023-06-04T03:24:08;99684.046875;;;9.560000;62.208984
77517;BME280;68414;53.946;27.634;2023-06-04T03:25:08;99681.132812;;;9.610000;62.108398
77517;BME280;68414;53.946;27.634;2023-06-04T03:26:08;99687.929688;;;9.630000;62.002930
77517;BME280;68414;53.946;27.634;2023-06-04T03:27:08;99685.320312;;;9.670000;62.094727
77517;BME280;68414;53.946;27.634;2023-06-04T03:28:08;99676.898438;;;9.720000;62.123047
77517;BME280;68414;53.946;27.634;2023-06-04T03:29:08;99684.648438;;;9.780000;61.937500
77517;BME280;68414;53.946;27.634;2023-06-04T03:30:08;99689.476562;;;9.810000;61.920898
77517;BME280;68414;53.946;27.634;2023-06-04T03:31:07;99686.890625;;;9.850000;61.794922
77517;BME280;68414;53.946;27.634;2023-06-04T03:32:08;99685.570312;;;9.910000;61.771484
77517;BME280;68414;53.946;27.634;2023-06-04T03:33:07;99688.281250;;;10.000000;61.610352
77517;BME280;68414;53.946;27.634;2023-06-04T03:34:08;99685.359375;;;10.050000;61.388672
77517;BME280;68414;53.946;27.634;2023-06-04T03:35:08;99682.734375;;;10.080000;61.382812
77517;BME280;68414;53.946;27.634;2023-06-04T03:36:08;99690.515625;;;10.150000;61.337891
77517;BME280;68414;53.946;27.634;2023-06-04T03:37:08;99693.875000;;;10.200000;61.194336
77517;BME280;68414;53.946;27.634;2023-06-04T03:38:08;99687.375000;;;10.250000;60.907227
77517;BME280;68414;53.946;27.634;2023-06-04T03:39:08;99689.828125;;;10.260000;60.899414
77517;BME280;68414;53.946;27.634;2023-06-04T03:40:08;99688.828125;;;10.310000;60.873047
77517;BME280;68414;53.946;27.634;2023-06-04T03:41:08;99688.968750;;;10.340000;60.866211
77517;BME280;68414;53.946;27.634;2023-06-04T03:42:07;99685.054688;;;10.350000;60.726562
77517;BME280;68414;53.946;27.634;2023-06-04T03:43:09;99689.093750;;;10.380000;60.632812
77517;BME280;68414;53.946;27.634;2023-06-04T03:44:07;99685.343750;;;10.420000;60.476562
77517;BME280;68414;53.946;27.634;2023-06-04T03:45:08;99689.390625;;;10.450000;60.480469
77517;BME280;68414;53.946;27.634;2023-06-04T03:46:08;99683.406250;;;10.430000;60.640625
77517;BME280;68414;53.946;27.634;2023-06-04T03:47:07;99695.710938;;;10.450000;60.654297
77517;BME280;68414;53.946;27.634;2023-06-04T03:48:07;99683.007812;;;10.530000;60.284180
77517;BME280;68414;53.946;27.634;2023-06-04T03:50:08;99687.460938;;;10.660000;58.737305
77517;BME280;68414;53.946;27.634;2023-06-04T03:51:07;99685.929688;;;10.770000;59.285156
77517;BME280;68414;53.946;27.634;2023-06-04T03:52:08;99688.625000;;;10.860000;59.263672
77517;BME280;68414;53.946;27.634;2023-06-04T03:53:08;99683.453125;;;10.840000;59.501953
77517;BME280;68414;53.946;27.634;2023-06-04T03:54:08;99684.515625;;;10.920000;59.837891
77517;BME280;68414;53.946;27.634;2023-06-04T03:55:08;99688.171875;;;11.040000;59.430664
77517;BME280;68414;53.946;27.634;2023-06-04T03:56:07;99691.781250;;;11.170000;58.653320
77517;BME280;68414;53.946;27.634;2023-06-04T03:57:07;99687.937500;;;11.300000;58.714844
77517;BME280;68414;53.946;27.634;2023-06-04T03:58:07;99685.679688;;;11.440000;58.221680
77517;BME280;68414;53.946;27.634;2023-06-04T03:59:07;99695.968750;;;11.560000;58.105469
77517;BME280;68414;53.946;27.634;2023-06-04T04:00:08;99684.359375;;;11.620000;57.886719
77517;BME280;68414;53.946;27.634;2023-06-04T04:01:07;99690.562500;;;11.590000;54.655273
77517;BME280;68414;53.946;27.634;2023-06-04T04:02:07;99687.328125;;;11.570000;54.292969
77517;BME280;68414;53.946;27.634;2023-06-04T04:03:07;99688.546875;;;11.680000;54.241211
77517;BME280;68414;53.946;27.634;2023-06-04T04:04:07;99690.171875;;;11.690000;54.122070
77517;BME280;68414;53.946;27.634;2023-06-04T04:05:08;99685.296875;;;11.660000;54.216797
77517;BME280;68414;53.946;27.634;2023-06-04T04:06:09;99687.875000;;;11.710000;54.004883
77517;BME280;68414;53.946;27.634;2023-06-04T04:07:08;99690.398438;;;11.760000;53.116211
77517;BME280;68414;53.946;27.634;2023-06-04T04:08:07;99687.320312;;;11.780000;51.949219
77517;BME280;68414;53.946;27.634;2023-06-04T04:09:07;99688.343750;;;11.730000;50.731445
77517;BME280;68414;53.946;27.634;2023-06-04T04:10:08;99690.539062;;;11.800000;51.099609
77517;BME280;68414;53.946;27.634;2023-06-04T04:11:08;99693.421875;;;11.950000;52.374023
77517;BME280;68414;53.946;27.634;2023-06-04T04:12:08;99696.218750;;;12.070000;51.908203
77517;BME280;68414;53.946;27.634;2023-06-04T04:13:07;99687.140625;;;12.190000;51.013672
77517;BME280;68414;53.946;27.634;2023-06-04T04:14:07;99701.062500;;;12.230000;52.024414
77517;BME280;68414;53.946;27.634;2023-06-04T04:15:08;99693.234375;;;12.250000;49.434570
77517;BME280;68414;53.946;27.634;2023-06-04T04:16:07;99693.476562;;;12.320000;49.158203
77517;BME280;68414;53.946;27.634;2023-06-04T04:17:07;99694.500000;;;12.390000;48.685547
77517;BME280;68414;53.946;27.634;2023-06-04T04:18:07;99697.390625;;;12.430000;48.041992
77517;BME280;68414;53.946;27.634;2023-06-04T04:19:07;99700.156250;;;12.430000;47.527344
77517;BME280;68414;53.946;27.634;2023-06-04T04:20:08;99697.039062;;;12.440000;47.870117
77517;BME280;68414;53.946;27.634;2023-06-04T04:21:07;99699.343750;;;12.420000;47.199219
77517;BME280;68414;53.946;27.634;2023-06-04T04:22:07;99702.343750;;;12.490000;47.284180
77517;BME280;68414;53.946;27.634;2023-06-04T04:23:07;99695.648438;;;12.500000;47.186523
77517;BME280;68414;53.946;27.634;2023-06-04T04:24:07;99701.765625;;;12.560000;47.377930
77517;BME280;68414;53.946;27.634;2023-06-04T04:25:08;99698.875000;;;12.520000;47.429688
77517;BME280;68414;53.946;27.634;2023-06-04T04:26:08;99706.250000;;;12.480000;46.876953
77517;BME280;68414;53.946;27.634;2023-06-04T04:27:07;99700.242188;;;12.580000;46.932617
77517;BME280;68414;53.946;27.634;2023-06-04T04:28:07;99701.765625;;;12.560000;47.236328
77517;BME280;68414;53.946;27.634;2023-06-04T04:29:07;99703.000000;;;12.580000;46.712891
77517;BME280;68414;53.946;27.634;2023-06-04T04:30:08;99696.890625;;;12.650000;46.774414
77517;BME280;68414;53.946;27.634;2023-06-04T04:31:07;99700.703125;;;12.720000;46.936523
77517;BME280;68414;53.946;27.634;2023-06-04T04:32:07;99696.890625;;;12.770000;47.105469
77517;BME280;68414;53.946;27.634;2023-06-04T04:33:07;99700.929688;;;12.790000;46.822266
77517;BME280;68414;53.946;27.634;2023-06-04T04:34:07;99696.531250;;;12.780000;46.635742
77517;BME280;68414;53.946;27.634;2023-06-04T04:35:08;99699.656250;;;12.650000;46.960938
77517;BME280;68414;53.946;27.634;2023-06-04T04:36:08;99703.687500;;;12.670000;46.788086
77517;BME280;68414;53.946;27.634;2023-06-04T04:37:07;99704.281250;;;12.730000;46.837891
77517;BME280;68414;53.946;27.634;2023-06-04T04:38:07;99696.437500;;;12.630000;46.904297
77517;BME280;68414;53.946;27.634;2023-06-04T04:39:07;99702.421875;;;12.650000;46.983398
77517;BME280;68414;53.946;27.634;2023-06-04T04:40:08;99695.070312;;;12.690000;47.327148
77517;BME280;68414;53.946;27.634;2023-06-04T04:41:07;99702.421875;;;12.770000;47.763672
77517;BME280;68414;53.946;27.634;2023-06-04T04:42:07;99698.617188;;;12.810000;47.407227